sensor_id;sensor_type;location;lat;lon;timestamp;temperature;humidity
7028;DHT22;3555;53.248;10.336;2022-08-02T00:00:56;15.90;1.00
7028;DHT22;3555;53.248;10.336;2022-08-02T00:03:23;16.00;1.00
7028;DHT22;3555;53.248;10.336;2022-08-02T00:05:50;16.00;1.00
7028;DHT22;3555;53.248;10.336;2022-08-02T00:08:17;16.00;1.00
7028;DHT22;3555;53.248;10.336;2022-08-02T00:10:44;16.10;1.00
7028;DHT22;3555;53.248;10.336;2022-08-02T00:13:12;15.90;1.00
7028;DHT22;3555;53.248;10.336;2022-08-02T00:15:39;15.80;1.00
7028;DHT22;3555;53.248;10.336;2022-08-02T00:18:05;15.80;1.00
7028;DHT22;3555;53.248;10.336;2022-08-02T00:20:32;15.80;1.00
7028;DHT22;3555;53.248;10.336;2022-08-02T00:22:59;15.80;1.00
7028;DHT22;3555;53.248;10.336;2022-08-02T00:25:26;15.80;1.00
7028;DHT22;3555;53.248;10.336;2022-08-02T00:27:53;15.80;1.00
7028;DHT22;3555;53.248;10.336;2022-08-02T00:30:21;15.70;1.00
7028;DHT22;3555;53.248;10.336;2022-08-02T00:32:47;15.60;1.00
7028;DHT22;3555;53.248;10.336;2022-08-02T00:35:14;15.70;1.00
7028;DHT22;3555;53.248;10.336;2022-08-02T00:37:41;15.50;1.00
7028;DHT22;3555;53.248;10.336;2022-08-02T00:40:09;15.50;1.00
7028;DHT22;3555;53.248;10.336;2022-08-02T00:42:37;15.40;1.00
7028;DHT22;3555;53.248;10.336;2022-08-02T00:45:04;15.40;1.00
7028;DHT22;3555;53.248;10.336;2022-08-02T00:47:33;15.40;1.00
7028;DHT22;3555;53.248;10.336;2022-08-02T00:49:59;15.30;1.00
7028;DHT22;3555;53.248;10.336;2022-08-02T00:52:26;15.40;1.00
7028;DHT22;3555;53.248;10.336;2022-08-02T00:54:53;15.40;1.00
7028;DHT22;3555;53.248;10.336;2022-08-02T00:57:20;15.40;1.00
7028;DHT22;3555;53.248;10.336;2022-08-02T00:59:47;15.30;1.00
7028;DHT22;3555;53.248;10.336;2022-08-02T01:02:13;15.30;1.00
7028;DHT22;3555;53.248;10.336;2022-08-02T01:04:42;15.20;1.00
7028;DHT22;3555;53.248;10.336;2022-08-02T01:07:08;15.10;1.00
7028;DHT22;3555;53.248;10.336;2022-08-02T01:09:35;15.10;1.00
7028;DHT22;3555;53.248;10.336;2022-08-02T01:12:02;15.10;1.00
7028;DHT22;3555;53.248;10.336;2022-08-02T01:14:29;15.10;1.00
7028;DHT22;3555;53.248;10.336;2022-08-02T01:17:00;15.00;1.00
7028;DHT22;3555;53.248;10.336;2022-08-02T01:19:36;15.00;1.00
7028;DHT22;3555;53.248;10.336;2022-08-02T01:22:15;15.00;1.00
7028;DHT22;3555;53.248;10.336;2022-08-02T01:25:08;15.00;1.00
7028;DHT22;3555;53.248;10.336;2022-08-02T01:27:45;15.00;1.00
7028;DHT22;3555;53.248;10.336;2022-08-02T01:30:16;15.00;1.00
7028;DHT22;3555;53.248;10.336;2022-08-02T01:32:49;15.00;1.00
7028;DHT22;3555;53.248;10.336;2022-08-02T01:35:22;15.00;1.00
7028;DHT22;3555;53.248;10.336;2022-08-02T01:37:54;15.00;1.00
7028;DHT22;3555;53.248;10.336;2022-08-02T01:40:26;14.90;1.00
7028;DHT22;3555;53.248;10.336;2022-08-02T01:42:54;14.90;1.00
7028;DHT22;3555;53.248;10.336;2022-08-02T01:45:27;14.70;1.00
7028;DHT22;3555;53.248;10.336;2022-08-02T01:47:56;14.70;1.00
7028;DHT22;3555;53.248;10.336;2022-08-02T01:50:27;14.70;1.00
7028;DHT22;3555;53.248;10.336;2022-08-02T01:52:59;14.60;1.00
7028;DHT22;3555;53.248;10.336;2022-08-02T01:55:31;14.60;1.00
7028;DHT22;3555;53.248;10.336;2022-08-02T01:58:03;14.50;1.00
7028;DHT22;3555;53.248;10.336;2022-08-02T02:00:39;14.50;1.00
7028;DHT22;3555;53.248;10.336;2022-08-02T02:03:10;14.40;1.00
7028;DHT22;3555;53.248;10.336;2022-08-02T02:05:38;14.40;1.00
7028;DHT22;3555;53.248;10.336;2022-08-02T02:08:07;14.30;1.00
7028;DHT22;3555;53.248;10.336;2022-08-02T02:10:35;14.20;1.00
7028;DHT22;3555;53.248;10.336;2022-08-02T02:13:06;14.20;28.80
7028;DHT22;3555;53.248;10.336;2022-08-02T02:15:40;14.00;25.30
7028;DHT22;3555;53.248;10.336;2022-08-02T02:18:10;14.00;23.20
7028;DHT22;3555;53.248;10.336;2022-08-02T02:20:39;14.00;21.90
7028;DHT22;3555;53.248;10.336;2022-08-02T02:23:06;14.10;29.50
7028;DHT22;3555;53.248;10.336;2022-08-02T02:25:33;14.10;6.10
7028;DHT22;3555;53.248;10.336;2022-08-02T02:28:04;14.20;1.00
7028;DHT22;3555;53.248;10.336;2022-08-02T02:30:34;14.20;1.00
7028;DHT22;3555;53.248;10.336;2022-08-02T02:33:05;14.20;1.00
7028;DHT22;3555;53.248;10.336;2022-08-02T02:35:34;14.20;1.00
7028;DHT22;3555;53.248;10.336;2022-08-02T02:38:04;14.20;1.00
7028;DHT22;3555;53.248;10.336;2022-08-02T02:40:32;14.20;1.00
7028;DHT22;3555;53.248;10.336;2022-08-02T02:43:01;14.20;1.00
7028;DHT22;3555;53.248;10.336;2022-08-02T02:45:29;14.20;1.00
7028;DHT22;3555;53.248;10.336;2022-08-02T02:47:59;14.20;1.00
7028;DHT22;3555;53.248;10.336;2022-08-02T02:50:27;14.10;1.00
7028;DHT22;3555;53.248;10.336;2022-08-02T02:52:55;13.80;1.00
7028;DHT22;3555;53.248;10.336;2022-08-02T02:55:23;13.70;16.30
7028;DHT22;3555;53.248;10.336;2022-08-02T02:57:50;13.60;39.90
7028;DHT22;3555;53.248;10.336;2022-08-02T03:00:17;13.60;20.30
7028;DHT22;3555;53.248;10.336;2022-08-02T03:03:06;13.60;1.00
7028;DHT22;3555;53.248;10.336;2022-08-02T03:05:33;13.50;1.00
7028;DHT22;3555;53.248;10.336;2022-08-02T03:08:00;13.50;1.00
7028;DHT22;3555;53.248;10.336;2022-08-02T03:10:27;13.30;1.00
7028;DHT22;3555;53.248;10.336;2022-08-02T03:12:54;13.30;1.00
7028;DHT22;3555;53.248;10.336;2022-08-02T03:15:25;13.30;1.00
7028;DHT22;3555;53.248;10.336;2022-08-02T03:17:52;13.20;1.00
7028;DHT22;3555;53.248;10.336;2022-08-02T03:20:20;13.20;1.00
7028;DHT22;3555;53.248;10.336;2022-08-02T03:22:48;13.00;1.00
7028;DHT22;3555;53.248;10.336;2022-08-02T03:25:16;13.00;1.00
7028;DHT22;3555;53.248;10.336;2022-08-02T03:27:43;12.90;1.00
7028;DHT22;3555;53.248;10.336;2022-08-02T03:30:11;12.80;15.70
7028;DHT22;3555;53.248;10.336;2022-08-02T03:32:40;12.80;36.90
7028;DHT22;3555;53.248;10.336;2022-08-02T03:35:10;12.80;25.40
7028;DHT22;3555;53.248;10.336;2022-08-02T03:37:39;12.80;1.00
7028;DHT22;3555;53.248;10.336;2022-08-02T03:40:09;12.70;1.00
7028;DHT22;3555;53.248;10.336;2022-08-02T03:42:37;12.50;80.50
7028;DHT22;3555;53.248;10.336;2022-08-02T03:45:08;12.50;59.80
7028;DHT22;3555;53.248;10.336;2022-08-02T03:47:37;12.40;81.00
7028;DHT22;3555;53.248;10.336;2022-08-02T03:50:05;12.30;99.90
7028;DHT22;3555;53.248;10.336;2022-08-02T03:52:33;12.10;99.90
7028;DHT22;3555;53.248;10.336;2022-08-02T03:55:03;11.90;99.90
7028;DHT22;3555;53.248;10.336;2022-08-02T03:57:30;12.00;99.90
7028;DHT22;3555;53.248;10.336;2022-08-02T03:59:57;12.20;99.90
7028;DHT22;3555;53.248;10.336;2022-08-02T04:02:23;12.20;99.90
7028;DHT22;3555;53.248;10.336;2022-08-02T04:04:50;12.30;99.90
7028;DHT22;3555;53.248;10.336;2022-08-02T04:07:17;12.40;99.90
7028;DHT22;3555;53.248;10.336;2022-08-02T04:09:44;12.40;99.90
7028;DHT22;3555;53.248;10.336;2022-08-02T04:12:12;12.50;99.90
7028;DHT22;3555;53.248;10.336;2022-08-02T04:14:39;12.60;98.70
7028;DHT22;3555;53.248;10.336;2022-08-02T04:17:08;12.60;99.80
7028;DHT22;3555;53.248;10.336;2022-08-02T04:19:37;12.70;86.60
7028;DHT22;3555;53.248;10.336;2022-08-02T04:22:06;12.70;78.20
7028;DHT22;3555;53.248;10.336;2022-08-02T04:24:38;12.80;63.30
7028;DHT22;3555;53.248;10.336;2022-08-02T04:27:07;12.70;60.30
7028;DHT22;3555;53.248;10.336;2022-08-02T04:29:37;12.70;44.10
7028;DHT22;3555;53.248;10.336;2022-08-02T04:32:06;12.60;84.20
7028;DHT22;3555;53.248;10.336;2022-08-02T04:34:33;12.50;99.90
7028;DHT22;3555;53.248;10.336;2022-08-02T04:37:00;12.50;99.90
7028;DHT22;3555;53.248;10.336;2022-08-02T04:39:27;12.50;99.90
7028;DHT22;3555;53.248;10.336;2022-08-02T04:41:54;12.40;99.90
7028;DHT22;3555;53.248;10.336;2022-08-02T04:44:21;12.90;99.90
7028;DHT22;3555;53.248;10.336;2022-08-02T04:46:49;12.20;99.90
7028;DHT22;3555;53.248;10.336;2022-08-02T04:49:16;12.20;99.90
7028;DHT22;3555;53.248;10.336;2022-08-02T04:51:43;12.10;99.90
7028;DHT22;3555;53.248;10.336;2022-08-02T04:54:10;11.80;99.90
7028;DHT22;3555;53.248;10.336;2022-08-02T04:56:37;11.80;99.90
7028;DHT22;3555;53.248;10.336;2022-08-02T04:59:05;11.90;99.90
7028;DHT22;3555;53.248;10.336;2022-08-02T05:01:32;11.80;99.90
7028;DHT22;3555;53.248;10.336;2022-08-02T05:04:01;12.00;99.90
7028;DHT22;3555;53.248;10.336;2022-08-02T05:06:28;11.80;99.90
7028;DHT22;3555;53.248;10.336;2022-08-02T05:08:54;11.50;99.90
7028;DHT22;3555;53.248;10.336;2022-08-02T05:11:22;11.80;99.90
7028;DHT22;3555;53.248;10.336;2022-08-02T05:13:49;11.90;99.90
7028;DHT22;3555;53.248;10.336;2022-08-02T05:16:16;11.90;99.90
7028;DHT22;3555;53.248;10.336;2022-08-02T05:18:43;12.10;99.90
7028;DHT22;3555;53.248;10.336;2022-08-02T05:21:11;12.20;99.90
7028;DHT22;3555;53.248;10.336;2022-08-02T05:23:38;11.90;99.90
7028;DHT22;3555;53.248;10.336;2022-08-02T05:26:05;12.20;99.90
7028;DHT22;3555;53.248;10.336;2022-08-02T05:28:32;12.40;99.90
7028;DHT22;3555;53.248;10.336;2022-08-02T05:30:59;12.50;99.90
7028;DHT22;3555;53.248;10.336;2022-08-02T05:33:26;12.50;99.90
7028;DHT22;3555;53.248;10.336;2022-08-02T05:35:53;12.70;99.90
7028;DHT22;3555;53.248;10.336;2022-08-02T05:38:21;12.80;99.90
7028;DHT22;3555;53.248;10.336;2022-08-02T05:40:48;13.10;99.90
7028;DHT22;3555;53.248;10.336;2022-08-02T05:43:15;13.20;99.90
7028;DHT22;3555;53.248;10.336;2022-08-02T05:45:42;13.40;99.90
7028;DHT22;3555;53.248;10.336;2022-08-02T05:48:08;13.60;99.90
7028;DHT22;3555;53.248;10.336;2022-08-02T05:50:38;13.90;99.90
7028;DHT22;3555;53.248;10.336;2022-08-02T05:53:14;14.30;99.90
7028;DHT22;3555;53.248;10.336;2022-08-02T05:55:47;14.60;99.90
7028;DHT22;3555;53.248;10.336;2022-08-02T05:58:20;15.00;99.90
7028;DHT22;3555;53.248;10.336;2022-08-02T06:00:52;15.60;17.80
7028;DHT22;3555;53.248;10.336;2022-08-02T06:03:23;16.10;1.00
7028;DHT22;3555;53.248;10.336;2022-08-02T06:05:56;16.50;1.00
7028;DHT22;3555;53.248;10.336;2022-08-02T06:08:30;16.60;1.00
7028;DHT22;3555;53.248;10.336;2022-08-02T06:11:00;16.90;1.00
7028;DHT22;3555;53.248;10.336;2022-08-02T06:13:27;17.30;99.90
7028;DHT22;3555;53.248;10.336;2022-08-02T06:15:55;17.60;1.00
7028;DHT22;3555;53.248;10.336;2022-08-02T06:18:25;17.60;1.00
7028;DHT22;3555;53.248;10.336;2022-08-02T06:20:54;17.70;1.00
7028;DHT22;3555;53.248;10.336;2022-08-02T06:23:22;17.70;99.90
7028;DHT22;3555;53.248;10.336;2022-08-02T06:25:50;17.80;1.00
7028;DHT22;3555;53.248;10.336;2022-08-02T06:28:20;18.10;1.00
7028;DHT22;3555;53.248;10.336;2022-08-02T06:30:47;18.30;1.00
7028;DHT22;3555;53.248;10.336;2022-08-02T06:33:13;18.50;1.00
7028;DHT22;3555;53.248;10.336;2022-08-02T06:35:45;18.70;99.90
7028;DHT22;3555;53.248;10.336;2022-08-02T06:38:17;18.90;1.00
7028;DHT22;3555;53.248;10.336;2022-08-02T06:40:47;19.10;1.00
7028;DHT22;3555;53.248;10.336;2022-08-02T06:43:32;19.20;11.10
7028;DHT22;3555;53.248;10.336;2022-08-02T06:46:00;19.30;1.00
7028;DHT22;3555;53.248;10.336;2022-08-02T06:48:28;19.40;55.30
7028;DHT22;3555;53.248;10.336;2022-08-02T06:50:55;19.60;1.00
7028;DHT22;3555;53.248;10.336;2022-08-02T06:53:22;20.00;1.00
7028;DHT22;3555;53.248;10.336;2022-08-02T06:55:49;20.00;99.90
7028;DHT22;3555;53.248;10.336;2022-08-02T06:58:16;20.00;1.00
7028;DHT22;3555;53.248;10.336;2022-08-02T07:00:44;20.00;99.90
7028;DHT22;3555;53.248;10.336;2022-08-02T07:03:11;19.70;1.00
7028;DHT22;3555;53.248;10.336;2022-08-02T07:05:38;19.80;37.60
7028;DHT22;3555;53.248;10.336;2022-08-02T07:08:05;19.60;1.00
7028;DHT22;3555;53.248;10.336;2022-08-02T07:10:32;20.00;1.00
7028;DHT22;3555;53.248;10.336;2022-08-02T07:12:59;20.20;1.00
7028;DHT22;3555;53.248;10.336;2022-08-02T07:15:26;20.20;1.00
7028;DHT22;3555;53.248;10.336;2022-08-02T07:17:54;20.20;1.00
7028;DHT22;3555;53.248;10.336;2022-08-02T07:20:21;20.20;1.00
7028;DHT22;3555;53.248;10.336;2022-08-02T07:22:48;20.70;67.90
7028;DHT22;3555;53.248;10.336;2022-08-02T07:25:15;20.90;1.00
7028;DHT22;3555;53.248;10.336;2022-08-02T07:27:41;21.40;1.00
7028;DHT22;3555;53.248;10.336;2022-08-02T07:30:09;21.30;1.00
7028;DHT22;3555;53.248;10.336;2022-08-02T07:32:36;21.30;1.00
7028;DHT22;3555;53.248;10.336;2022-08-02T07:35:06;21.40;99.90
7028;DHT22;3555;53.248;10.336;2022-08-02T07:37:34;21.30;99.90
7028;DHT22;3555;53.248;10.336;2022-08-02T07:40:01;21.60;99.90
7028;DHT22;3555;53.248;10.336;2022-08-02T07:42:27;21.90;99.90
7028;DHT22;3555;53.248;10.336;2022-08-02T07:44:54;22.30;99.90
7028;DHT22;3555;53.248;10.336;2022-08-02T07:47:21;21.50;1.00
7028;DHT22;3555;53.248;10.336;2022-08-02T07:49:48;21.30;99.90
7028;DHT22;3555;53.248;10.336;2022-08-02T07:52:16;21.60;99.90
7028;DHT22;3555;53.248;10.336;2022-08-02T07:54:43;22.00;99.90
7028;DHT22;3555;53.248;10.336;2022-08-02T07:57:10;22.30;89.60
7028;DHT22;3555;53.248;10.336;2022-08-02T07:59:36;22.40;1.00
7028;DHT22;3555;53.248;10.336;2022-08-02T08:02:03;22.50;1.00
7028;DHT22;3555;53.248;10.336;2022-08-02T08:04:30;22.20;99.90
7028;DHT22;3555;53.248;10.336;2022-08-02T08:06:57;22.50;1.00
7028;DHT22;3555;53.248;10.336;2022-08-02T08:09:25;22.80;1.00
7028;DHT22;3555;53.248;10.336;2022-08-02T08:11:52;22.10;1.00
7028;DHT22;3555;53.248;10.336;2022-08-02T08:14:19;22.20;16.40
7028;DHT22;3555;53.248;10.336;2022-08-02T08:16:45;22.80;99.90
7028;DHT22;3555;53.248;10.336;2022-08-02T08:19:12;23.40;1.00
7028;DHT22;3555;53.248;10.336;2022-08-02T08:21:39;23.80;1.00
7028;DHT22;3555;53.248;10.336;2022-08-02T08:24:06;23.60;1.00
7028;DHT22;3555;53.248;10.336;2022-08-02T08:26:35;23.90;99.90
7028;DHT22;3555;53.248;10.336;2022-08-02T08:29:01;23.70;1.00
7028;DHT22;3555;53.248;10.336;2022-08-02T08:31:30;23.50;1.00
7028;DHT22;3555;53.248;10.336;2022-08-02T08:33:57;23.20;1.00
7028;DHT22;3555;53.248;10.336;2022-08-02T08:36:24;23.50;99.90
7028;DHT22;3555;53.248;10.336;2022-08-02T08:38:51;23.70;1.00
7028;DHT22;3555;53.248;10.336;2022-08-02T08:41:19;23.50;1.00
7028;DHT22;3555;53.248;10.336;2022-08-02T08:43:47;23.40;1.00
7028;DHT22;3555;53.248;10.336;2022-08-02T08:46:20;23.70;99.90
7028;DHT22;3555;53.248;10.336;2022-08-02T08:48:52;24.10;99.90
7028;DHT22;3555;53.248;10.336;2022-08-02T08:51:20;23.70;99.90
7028;DHT22;3555;53.248;10.336;2022-08-02T08:53:53;23.40;99.90
7028;DHT22;3555;53.248;10.336;2022-08-02T08:56:22;23.50;1.00
7028;DHT22;3555;53.248;10.336;2022-08-02T08:58:50;23.70;99.90
7028;DHT22;3555;53.248;10.336;2022-08-02T09:01:17;23.70;99.90
7028;DHT22;3555;53.248;10.336;2022-08-02T09:03:45;23.70;1.00
7028;DHT22;3555;53.248;10.336;2022-08-02T09:06:12;23.60;99.90
7028;DHT22;3555;53.248;10.336;2022-08-02T09:08:38;23.50;99.90
7028;DHT22;3555;53.248;10.336;2022-08-02T09:11:12;23.30;1.00
7028;DHT22;3555;53.248;10.336;2022-08-02T09:13:48;23.90;1.00
7028;DHT22;3555;53.248;10.336;2022-08-02T09:16:26;24.60;99.90
7028;DHT22;3555;53.248;10.336;2022-08-02T09:18:53;25.20;99.90
7028;DHT22;3555;53.248;10.336;2022-08-02T09:21:20;25.50;99.90
7028;DHT22;3555;53.248;10.336;2022-08-02T09:23:48;25.40;99.90
7028;DHT22;3555;53.248;10.336;2022-08-02T09:26:18;25.50;99.90
7028;DHT22;3555;53.248;10.336;2022-08-02T09:28:47;25.40;99.90
7028;DHT22;3555;53.248;10.336;2022-08-02T09:31:18;25.60;99.90
7028;DHT22;3555;53.248;10.336;2022-08-02T09:33:52;25.60;96.40
7028;DHT22;3555;53.248;10.336;2022-08-02T09:36:20;25.60;99.90
7028;DHT22;3555;53.248;10.336;2022-08-02T09:38:55;26.00;99.90
7028;DHT22;3555;53.248;10.336;2022-08-02T09:41:24;26.40;46.80
7028;DHT22;3555;53.248;10.336;2022-08-02T09:43:52;26.50;35.70
7028;DHT22;3555;53.248;10.336;2022-08-02T09:46:23;26.40;25.50
7028;DHT22;3555;53.248;10.336;2022-08-02T09:48:52;26.70;76.40
7028;DHT22;3555;53.248;10.336;2022-08-02T09:51:21;26.90;1.00
7028;DHT22;3555;53.248;10.336;2022-08-02T09:53:51;27.00;1.00
7028;DHT22;3555;53.248;10.336;2022-08-02T09:56:19;27.40;67.10
7028;DHT22;3555;53.248;10.336;2022-08-02T09:58:46;27.70;1.00
7028;DHT22;3555;53.248;10.336;2022-08-02T10:01:14;28.10;1.00
7028;DHT22;3555;53.248;10.336;2022-08-02T10:03:56;28.20;1.00
7028;DHT22;3555;53.248;10.336;2022-08-02T10:06:24;28.30;1.00
7028;DHT22;3555;53.248;10.336;2022-08-02T10:08:51;27.90;1.00
7028;DHT22;3555;53.248;10.336;2022-08-02T10:11:19;28.10;1.00
7028;DHT22;3555;53.248;10.336;2022-08-02T10:13:47;28.10;1.00
7028;DHT22;3555;53.248;10.336;2022-08-02T10:16:15;28.10;1.00
7028;DHT22;3555;53.248;10.336;2022-08-02T10:18:44;27.30;1.00
7028;DHT22;3555;53.248;10.336;2022-08-02T10:21:14;27.20;1.00
7028;DHT22;3555;53.248;10.336;2022-08-02T10:23:43;27.50;1.00
7028;DHT22;3555;53.248;10.336;2022-08-02T10:26:14;27.80;1.00
7028;DHT22;3555;53.248;10.336;2022-08-02T10:28:45;28.10;1.00
7028;DHT22;3555;53.248;10.336;2022-08-02T10:31:16;27.90;1.00
7028;DHT22;3555;53.248;10.336;2022-08-02T10:33:45;26.90;1.00
7028;DHT22;3555;53.248;10.336;2022-08-02T10:36:15;27.20;1.00
7028;DHT22;3555;53.248;10.336;2022-08-02T10:38:43;27.20;1.00
7028;DHT22;3555;53.248;10.336;2022-08-02T10:41:11;26.40;1.00
7028;DHT22;3555;53.248;10.336;2022-08-02T10:43:44;26.70;1.00
7028;DHT22;3555;53.248;10.336;2022-08-02T10:46:21;27.00;1.00
7028;DHT22;3555;53.248;10.336;2022-08-02T10:49:06;27.10;1.00
7028;DHT22;3555;53.248;10.336;2022-08-02T10:52:04;27.20;1.00
7028;DHT22;3555;53.248;10.336;2022-08-02T10:54:34;27.50;1.00
7028;DHT22;3555;53.248;10.336;2022-08-02T10:57:01;28.00;1.00
7028;DHT22;3555;53.248;10.336;2022-08-02T10:59:31;28.30;1.00
7028;DHT22;3555;53.248;10.336;2022-08-02T11:02:02;28.50;1.00
7028;DHT22;3555;53.248;10.336;2022-08-02T11:07:29;27.20;1.00
7028;DHT22;3555;53.248;10.336;2022-08-02T11:09:56;27.10;1.00
7028;DHT22;3555;53.248;10.336;2022-08-02T11:12:24;27.40;1.00
7028;DHT22;3555;53.248;10.336;2022-08-02T11:14:58;27.70;1.00
7028;DHT22;3555;53.248;10.336;2022-08-02T11:17:25;27.80;1.00
7028;DHT22;3555;53.248;10.336;2022-08-02T11:20:15;28.30;1.00
7028;DHT22;3555;53.248;10.336;2022-08-02T11:22:45;29.00;1.00
7028;DHT22;3555;53.248;10.336;2022-08-02T11:25:32;29.20;1.00
7028;DHT22;3555;53.248;10.336;2022-08-02T11:28:07;29.00;1.00
7028;DHT22;3555;53.248;10.336;2022-08-02T11:30:34;29.30;1.00
7028;DHT22;3555;53.248;10.336;2022-08-02T11:33:01;29.60;1.00
7028;DHT22;3555;53.248;10.336;2022-08-02T11:35:33;29.30;1.00
7028;DHT22;3555;53.248;10.336;2022-08-02T11:38:16;29.10;1.00
7028;DHT22;3555;53.248;10.336;2022-08-02T11:40:43;28.90;1.00
7028;DHT22;3555;53.248;10.336;2022-08-02T11:43:19;29.10;1.00
7028;DHT22;3555;53.248;10.336;2022-08-02T11:45:47;29.10;1.00
7028;DHT22;3555;53.248;10.336;2022-08-02T11:48:14;29.00;1.00
7028;DHT22;3555;53.248;10.336;2022-08-02T11:51:05;28.20;1.00
7028;DHT22;3555;53.248;10.336;2022-08-02T11:53:49;28.40;1.00
7028;DHT22;3555;53.248;10.336;2022-08-02T11:56:26;28.80;1.00
7028;DHT22;3555;53.248;10.336;2022-08-02T11:59:00;29.50;1.00
7028;DHT22;3555;53.248;10.336;2022-08-02T12:01:28;30.10;1.00
7028;DHT22;3555;53.248;10.336;2022-08-02T12:03:55;29.90;1.00
7028;DHT22;3555;53.248;10.336;2022-08-02T12:06:25;30.20;1.00
7028;DHT22;3555;53.248;10.336;2022-08-02T12:08:58;29.10;1.00
7028;DHT22;3555;53.248;10.336;2022-08-02T12:11:25;29.20;1.00
7028;DHT22;3555;53.248;10.336;2022-08-02T12:13:51;28.90;1.00
7028;DHT22;3555;53.248;10.336;2022-08-02T12:16:18;29.10;1.00
7028;DHT22;3555;53.248;10.336;2022-08-02T12:19:02;29.20;1.00
7028;DHT22;3555;53.248;10.336;2022-08-02T12:21:45;29.70;1.00
7028;DHT22;3555;53.248;10.336;2022-08-02T12:24:27;29.80;1.00
7028;DHT22;3555;53.248;10.336;2022-08-02T12:26:54;29.60;1.00
7028;DHT22;3555;53.248;10.336;2022-08-02T12:29:31;28.70;1.00
7028;DHT22;3555;53.248;10.336;2022-08-02T12:31:58;28.50;1.00
7028;DHT22;3555;53.248;10.336;2022-08-02T12:34:26;28.90;1.00
7028;DHT22;3555;53.248;10.336;2022-08-02T12:37:00;29.30;1.00
7028;DHT22;3555;53.248;10.336;2022-08-02T12:39:38;29.90;1.00
7028;DHT22;3555;53.248;10.336;2022-08-02T12:42:07;30.10;1.00
7028;DHT22;3555;53.248;10.336;2022-08-02T12:44:36;30.50;1.00
7028;DHT22;3555;53.248;10.336;2022-08-02T12:47:05;30.40;1.00
7028;DHT22;3555;53.248;10.336;2022-08-02T12:49:32;30.40;1.00
7028;DHT22;3555;53.248;10.336;2022-08-02T12:51:59;30.20;1.00
7028;DHT22;3555;53.248;10.336;2022-08-02T12:54:27;29.10;1.00
7028;DHT22;3555;53.248;10.336;2022-08-02T12:56:56;29.10;1.00
7028;DHT22;3555;53.248;10.336;2022-08-02T12:59:34;29.30;1.00
7028;DHT22;3555;53.248;10.336;2022-08-02T13:02:02;29.80;1.00
7028;DHT22;3555;53.248;10.336;2022-08-02T13:04:29;30.10;1.00
7028;DHT22;3555;53.248;10.336;2022-08-02T13:06:56;30.30;1.00
7028;DHT22;3555;53.248;10.336;2022-08-02T13:09:23;30.60;1.00
7028;DHT22;3555;53.248;10.336;2022-08-02T13:11:50;30.60;1.00
7028;DHT22;3555;53.248;10.336;2022-08-02T13:14:18;30.70;1.00
7028;DHT22;3555;53.248;10.336;2022-08-02T13:16:45;30.90;1.00
7028;DHT22;3555;53.248;10.336;2022-08-02T13:19:13;30.80;1.00
7028;DHT22;3555;53.248;10.336;2022-08-02T13:21:41;30.40;1.00
7028;DHT22;3555;53.248;10.336;2022-08-02T13:24:08;30.50;1.00
7028;DHT22;3555;53.248;10.336;2022-08-02T13:26:39;30.50;1.00
7028;DHT22;3555;53.248;10.336;2022-08-02T13:29:06;30.40;1.00
7028;DHT22;3555;53.248;10.336;2022-08-02T13:31:34;30.80;1.00
7028;DHT22;3555;53.248;10.336;2022-08-02T13:34:03;30.50;1.00
7028;DHT22;3555;53.248;10.336;2022-08-02T13:36:30;30.10;1.00
7028;DHT22;3555;53.248;10.336;2022-08-02T13:38:57;30.10;1.00
7028;DHT22;3555;53.248;10.336;2022-08-02T13:41:24;30.40;1.00
7028;DHT22;3555;53.248;10.336;2022-08-02T13:43:51;30.40;1.00
7028;DHT22;3555;53.248;10.336;2022-08-02T13:46:18;30.50;1.00
7028;DHT22;3555;53.248;10.336;2022-08-02T13:48:47;30.40;1.00
7028;DHT22;3555;53.248;10.336;2022-08-02T13:51:13;30.20;1.00
7028;DHT22;3555;53.248;10.336;2022-08-02T13:53:41;30.50;1.00
7028;DHT22;3555;53.248;10.336;2022-08-02T13:56:08;30.70;1.00
7028;DHT22;3555;53.248;10.336;2022-08-02T13:58:35;30.80;1.00
7028;DHT22;3555;53.248;10.336;2022-08-02T14:01:02;31.00;1.00
7028;DHT22;3555;53.248;10.336;2022-08-02T14:03:28;31.40;1.00
7028;DHT22;3555;53.248;10.336;2022-08-02T14:05:57;31.30;1.00
7028;DHT22;3555;53.248;10.336;2022-08-02T14:08:23;31.50;1.00
7028;DHT22;3555;53.248;10.336;2022-08-02T14:10:50;31.60;1.00
7028;DHT22;3555;53.248;10.336;2022-08-02T14:13:18;31.00;1.00
7028;DHT22;3555;53.248;10.336;2022-08-02T14:15:45;30.20;1.00
7028;DHT22;3555;53.248;10.336;2022-08-02T14:18:12;30.40;1.00
7028;DHT22;3555;53.248;10.336;2022-08-02T14:20:39;30.30;1.00
7028;DHT22;3555;53.248;10.336;2022-08-02T14:23:08;30.50;1.00
7028;DHT22;3555;53.248;10.336;2022-08-02T14:25:35;30.70;1.00
7028;DHT22;3555;53.248;10.336;2022-08-02T14:28:02;31.00;1.00
7028;DHT22;3555;53.248;10.336;2022-08-02T14:30:29;31.40;1.00
7028;DHT22;3555;53.248;10.336;2022-08-02T14:32:56;31.40;1.00
7028;DHT22;3555;53.248;10.336;2022-08-02T14:35:23;31.30;1.00
7028;DHT22;3555;53.248;10.336;2022-08-02T14:37:50;31.20;1.00
7028;DHT22;3555;53.248;10.336;2022-08-02T14:40:18;31.10;1.00
7028;DHT22;3555;53.248;10.336;2022-08-02T14:42:45;31.30;1.00
7028;DHT22;3555;53.248;10.336;2022-08-02T14:45:12;31.30;1.00
7028;DHT22;3555;53.248;10.336;2022-08-02T14:47:39;30.70;1.00
7028;DHT22;3555;53.248;10.336;2022-08-02T14:50:06;30.60;1.00
7028;DHT22;3555;53.248;10.336;2022-08-02T14:52:33;30.60;1.00
7028;DHT22;3555;53.248;10.336;2022-08-02T14:55:00;30.40;1.00
7028;DHT22;3555;53.248;10.336;2022-08-02T14:57:30;30.50;1.00
7028;DHT22;3555;53.248;10.336;2022-08-02T14:59:57;30.40;1.00
7028;DHT22;3555;53.248;10.336;2022-08-02T15:02:26;30.20;1.00
7028;DHT22;3555;53.248;10.336;2022-08-02T15:04:52;30.40;1.00
7028;DHT22;3555;53.248;10.336;2022-08-02T15:07:19;30.20;1.00
7028;DHT22;3555;53.248;10.336;2022-08-02T15:09:46;30.50;1.00
7028;DHT22;3555;53.248;10.336;2022-08-02T15:12:14;30.80;1.00
7028;DHT22;3555;53.248;10.336;2022-08-02T15:14:42;31.00;1.00
7028;DHT22;3555;53.248;10.336;2022-08-02T15:17:09;31.30;1.00
7028;DHT22;3555;53.248;10.336;2022-08-02T15:19:37;31.50;1.00
7028;DHT22;3555;53.248;10.336;2022-08-02T15:22:06;31.30;1.00
7028;DHT22;3555;53.248;10.336;2022-08-02T15:24:33;31.40;1.00
7028;DHT22;3555;53.248;10.336;2022-08-02T15:26:59;31.50;1.00
7028;DHT22;3555;53.248;10.336;2022-08-02T15:29:26;31.60;1.00
7028;DHT22;3555;53.248;10.336;2022-08-02T15:31:54;31.20;1.00
7028;DHT22;3555;53.248;10.336;2022-08-02T15:34:21;30.70;1.00
7028;DHT22;3555;53.248;10.336;2022-08-02T15:36:48;30.60;1.00
7028;DHT22;3555;53.248;10.336;2022-08-02T15:39:15;30.40;1.00
7028;DHT22;3555;53.248;10.336;2022-08-02T15:41:42;30.40;1.00
7028;DHT22;3555;53.248;10.336;2022-08-02T15:44:08;30.10;1.00
7028;DHT22;3555;53.248;10.336;2022-08-02T15:46:38;29.90;1.00
7028;DHT22;3555;53.248;10.336;2022-08-02T15:49:06;30.10;1.00
7028;DHT22;3555;53.248;10.336;2022-08-02T15:51:33;30.30;1.00
7028;DHT22;3555;53.248;10.336;2022-08-02T15:54:00;30.10;1.00
7028;DHT22;3555;53.248;10.336;2022-08-02T15:56:27;29.80;1.00
7028;DHT22;3555;53.248;10.336;2022-08-02T15:58:54;29.70;1.00
7028;DHT22;3555;53.248;10.336;2022-08-02T16:01:21;29.40;1.00
7028;DHT22;3555;53.248;10.336;2022-08-02T16:03:47;29.40;1.00
7028;DHT22;3555;53.248;10.336;2022-08-02T16:06:16;29.30;1.00
7028;DHT22;3555;53.248;10.336;2022-08-02T16:08:43;28.40;1.00
7028;DHT22;3555;53.248;10.336;2022-08-02T16:11:12;28.10;1.00